Terminal Aerodrome Forecast
Issued by NWS

Home | Current Version | Previous Version | Graphics & Text | Print | Product List | Glossary On
Versions: 1 2 3 4 5 6 7 8 9 10 11 12 13 14 15 16
000
FTUS43 KBIS 292320
TAFMOT
TAF
KMOT 292320Z 3000/3024 19008KT 4SM FU VV045
     FM301500 16005KT P6SM BKN250
     FM301800 18013G20KT P6SM SCT250=

USA.gov is the U.S. government's official web portal to all federal, state and local government web resources and services.